Time;durP1;ratioP1;P1;durP2;ratioP2;P2;SDS_P1;SDS_P2;PMS_P1;PMS_P2;Temp;Humidity;BMP_temperature;BMP_pressure;BME280_temperature;BME280_humidity;BME280_pressure;Samples;Min_cycle;Max_cycle;Signal;HPM_P1;HPM_P2
2021/06/07 00:01:23;;;;;;;10.80;6.72;;;12.60;90.90;;;;;;5034606;28;20529;-51
2021/06/07 00:03:49;;;;;;;12.15;7.53;;;12.60;91.00;;;;;;5050722;28;20048;-51
2021/06/07 00:06:16;;;;;;;10.90;7.65;;;12.60;91.10;;;;;;5051208;28;20136;-54
2021/06/07 00:08:42;;;;;;;12.27;7.10;;;12.60;91.20;;;;;;5053667;28;20068;-51
2021/06/07 00:11:08;;;;;;;10.30;7.18;;;12.60;91.20;;;;;;5053489;28;20041;-50
2021/06/07 00:13:36;;;;;;;12.75;7.28;;;12.60;91.30;;;;;;5043524;28;20505;-51
2021/06/07 00:16:03;;;;;;;10.00;6.60;;;12.60;91.30;;;;;;5048794;28;20060;-53
2021/06/07 00:18:29;;;;;;;10.45;7.40;;;12.70;91.20;;;;;;5035178;28;20029;-53
2021/06/07 00:21:06;;;;;;;9.25;6.75;;;12.60;91.10;;;;;;5052690;28;20037;-54
2021/06/07 00:23:32;;;;;;;12.02;6.68;;;12.70;91.10;;;;;;5052135;28;20049;-54
2021/06/07 00:25:59;;;;;;;10.60;6.50;;;12.60;91.10;;;;;;5035221;28;20056;-52
2021/06/07 00:28:25;;;;;;;10.75;7.25;;;12.60;91.00;;;;;;5035341;28;20037;-54
2021/06/07 00:31:12;;;;;;;10.00;6.43;;;12.70;91.10;;;;;;5017216;28;20099;-53
2021/06/07 00:33:39;;;;;;;9.05;6.28;;;12.60;91.00;;;;;;5052091;28;20124;-54
2021/06/07 00:36:07;;;;;;;7.55;6.20;;;12.70;91.00;;;;;;5017750;28;20037;-54
2021/06/07 00:38:36;;;;;;;9.88;6.82;;;12.60;90.90;;;;;;5005864;28;20249;-53
2021/06/07 00:41:04;;;;;;;10.15;6.68;;;12.60;90.90;;;;;;5031525;28;20508;-50
2021/06/07 00:43:30;;;;;;;11.55;6.68;;;12.60;90.90;;;;;;5041434;28;20033;-54
2021/06/07 00:45:56;;;;;;;8.73;6.47;;;12.60;90.90;;;;;;5049297;28;20041;-51
2021/06/07 00:48:22;;;;;;;8.82;6.60;;;12.60;90.90;;;;;;5044087;28;20343;-54
2021/06/07 00:50:52;;;;;;;10.27;6.80;;;12.60;90.90;;;;;;5047413;28;20052;-52
2021/06/07 00:53:18;;;;;;;10.38;6.72;;;12.70;90.90;;;;;;5023239;28;20124;-54
2021/06/07 00:55:48;;;;;;;12.73;6.95;;;12.60;90.80;;;;;;5018039;28;20064;-52
2021/06/07 00:58:18;;;;;;;9.43;6.60;;;12.70;90.80;;;;;;5034505;28;20369;-55
2021/06/07 01:00:45;;;;;;;15.40;7.50;;;12.70;90.90;;;;;;5053035;28;20244;-54
2021/06/07 01:03:12;;;;;;;9.88;6.40;;;12.70;90.90;;;;;;5053159;28;20041;-51
2021/06/07 01:05:38;;;;;;;10.68;7.20;;;12.70;90.90;;;;;;5052798;28;20063;-52
2021/06/07 01:08:05;;;;;;;9.13;6.70;;;12.70;90.80;;;;;;5051234;28;20467;-51
2021/06/07 01:10:32;;;;;;;10.80;6.85;;;12.70;90.80;;;;;;5052770;28;20044;-52
2021/06/07 01:12:59;;;;;;;11.68;7.28;;;12.70;90.80;;;;;;5053004;28;20147;-50
2021/06/07 01:15:25;;;;;;;10.00;7.13;;;12.70;90.70;;;;;;5033342;28;20112;-53
2021/06/07 01:17:51;;;;;;;10.63;6.85;;;12.70;90.80;;;;;;5048016;28;20061;-49
2021/06/07 01:20:18;;;;;;;13.07;7.32;;;12.80;90.70;;;;;;5034527;28;20102;-51
2021/06/07 01:22:47;;;;;;;8.65;6.80;;;12.80;90.70;;;;;;5048955;28;20079;-52
2021/06/07 01:25:23;;;;;;;8.55;6.60;;;12.70;90.70;;;;;;5040655;28;20059;-51
2021/06/07 01:27:50;;;;;;;10.55;6.90;;;12.80;90.70;;;;;;5039047;28;20041;-52
2021/06/07 01:30:18;;;;;;;9.40;6.80;;;12.80;90.70;;;;;;5041312;28;20041;-51
2021/06/07 01:32:45;;;;;;;9.57;7.10;;;12.80;90.60;;;;;;5042586;28;20053;-50
2021/06/07 01:35:12;;;;;;;11.23;7.38;;;12.80;90.60;;;;;;5036427;28;20048;-51
2021/06/07 01:37:42;;;;;;;10.30;7.47;;;12.80;90.50;;;;;;5035682;28;20037;-50
2021/06/07 01:40:11;;;;;;;9.75;6.88;;;12.80;90.70;;;;;;5024034;28;20489;-48
2021/06/07 01:42:38;;;;;;;9.98;7.05;;;12.80;90.70;;;;;;5038743;28;20090;-48
2021/06/07 01:45:06;;;;;;;10.57;7.28;;;12.80;90.70;;;;;;5049980;28;20041;-49
2021/06/07 01:47:33;;;;;;;9.35;6.75;;;12.80;90.70;;;;;;5048995;28;20501;-48
2021/06/07 01:50:00;;;;;;;8.73;6.60;;;12.80;90.80;;;;;;5044057;28;20037;-51
2021/06/07 01:52:28;;;;;;;10.13;6.25;;;12.80;90.80;;;;;;5035108;28;20511;-52
2021/06/07 01:54:54;;;;;;;10.10;7.00;;;12.80;90.70;;;;;;5051850;28;20041;-51
2021/06/07 01:57:19;;;;;;;9.40;7.32;;;12.80;90.70;;;;;;5051834;28;20459;-51
2021/06/07 01:59:46;;;;;;;9.57;6.88;;;12.70;90.80;;;;;;5056404;28;20412;-49
2021/06/07 02:02:11;;;;;;;10.68;7.03;;;12.70;90.80;;;;;;5072018;28;20132;-49
2021/06/07 02:04:37;;;;;;;8.63;6.50;;;12.70;90.80;;;;;;5037688;28;20048;-51
2021/06/07 02:07:06;;;;;;;9.45;7.28;;;12.70;90.80;;;;;;5050486;28;20072;-53
2021/06/07 02:09:32;;;;;;;10.75;6.68;;;12.70;90.70;;;;;;5031484;28;20128;-51
2021/06/07 02:11:58;;;;;;;10.73;6.88;;;12.70;90.80;;;;;;5021738;28;20605;-49
2021/06/07 02:14:24;;;;;;;10.40;6.85;;;12.70;90.80;;;;;;5045946;28;20053;-51
2021/06/07 02:16:49;;;;;;;11.68;7.15;;;12.60;90.70;;;;;;5034117;28;20033;-49
2021/06/07 02:19:15;;;;;;;11.82;7.10;;;12.60;90.80;;;;;;5037207;28;20115;-48
2021/06/07 02:21:43;;;;;;;10.90;6.88;;;12.60;90.80;;;;;;5034803;28;20501;-51
2021/06/07 02:24:10;;;;;;;8.80;6.65;;;12.50;90.90;;;;;;5016292;28;20405;-50
2021/06/07 02:26:36;;;;;;;10.70;7.68;;;12.50;90.90;;;;;;5031134;28;20040;-49
2021/06/07 02:29:11;;;;;;;10.32;6.45;;;12.40;90.90;;;;;;5032814;28;20497;-50
2021/06/07 02:31:38;;;;;;;11.05;7.47;;;12.40;91.00;;;;;;5044964;28;20132;-48
2021/06/07 02:34:08;;;;;;;8.82;7.30;;;12.40;91.00;;;;;;5032919;28;20049;-53
2021/06/07 02:36:36;;;;;;;10.82;7.32;;;12.30;91.00;;;;;;5036879;28;20069;-50
2021/06/07 02:39:07;;;;;;;10.57;7.20;;;12.30;91.10;;;;;;5037477;28;20040;-49
2021/06/07 02:41:36;;;;;;;10.43;6.95;;;12.30;91.00;;;;;;5022060;28;20057;-50
2021/06/07 02:44:02;;;;;;;15.00;7.30;;;12.30;91.10;;;;;;5039479;28;20044;-49
2021/06/07 02:46:28;;;;;;;12.57;7.15;;;12.30;91.10;;;;;;5021582;28;20511;-50
2021/06/07 02:48:54;;;;;;;10.27;7.32;;;12.20;91.00;;;;;;5034686;28;20126;-50
2021/06/07 02:51:20;;;;;;;12.85;7.75;;;12.20;91.10;;;;;;5039934;28;20040;-50
2021/06/07 02:53:48;;;;;;;11.20;7.70;;;12.20;91.10;;;;;;5047179;28;20061;-52
2021/06/07 02:56:16;;;;;;;9.48;7.35;;;12.10;91.20;;;;;;5032651;28;20044;-48
2021/06/07 02:58:45;;;;;;;10.30;7.25;;;12.10;91.20;;;;;;5049320;28;20595;-48
2021/06/07 03:01:12;;;;;;;11.50;7.80;;;12.00;91.20;;;;;;5009170;28;20076;-51
2021/06/07 03:03:38;;;;;;;9.70;7.90;;;12.00;91.30;;;;;;5036603;28;20041;-50
2021/06/07 03:06:05;;;;;;;9.23;7.63;;;11.90;91.30;;;;;;5019652;28;20141;-53
2021/06/07 03:08:34;;;;;;;10.73;7.72;;;11.90;91.40;;;;;;5032237;28;20076;-51
2021/06/07 03:11:05;;;;;;;13.70;8.32;;;11.90;91.30;;;;;;5035080;28;20105;-51
2021/06/07 03:13:31;;;;;;;13.52;8.40;;;11.80;91.30;;;;;;5034212;28;20117;-52
2021/06/07 03:15:59;;;;;;;9.85;8.07;;;11.80;91.50;;;;;;5022936;28;20037;-53
2021/06/07 03:18:29;;;;;;;11.05;8.40;;;11.80;91.40;;;;;;5012578;28;20060;-49
2021/06/07 03:20:55;;;;;;;11.93;8.73;;;11.70;91.40;;;;;;5032223;28;20045;-48
2021/06/07 03:23:25;;;;;;;10.77;8.40;;;11.80;91.50;;;;;;5034851;28;20152;-48
2021/06/07 03:25:51;;;;;;;15.02;8.52;;;11.70;91.50;;;;;;5032124;28;20421;-49
2021/06/07 03:28:19;;;;;;;12.40;9.00;;;11.60;91.50;;;;;;5047966;28;20038;-50
2021/06/07 03:30:46;;;;;;;10.85;8.43;;;11.60;91.70;;;;;;5032538;28;20049;-52
2021/06/07 03:33:12;;;;;;;12.65;8.73;;;11.60;91.70;;;;;;5035207;28;20041;-51
2021/06/07 03:35:41;;;;;;;14.02;9.10;;;11.60;91.70;;;;;;5031164;28;20041;-54
2021/06/07 03:38:07;;;;;;;11.35;8.40;;;11.60;91.70;;;;;;5031015;28;20044;-53
2021/06/07 03:40:36;;;;;;;11.80;8.27;;;11.60;91.70;;;;;;5044496;28;20156;-52
2021/06/07 03:43:02;;;;;;;12.95;8.95;;;11.60;91.70;;;;;;5056200;28;20037;-50
2021/06/07 03:45:29;;;;;;;11.95;8.82;;;11.60;91.70;;;;;;5053575;28;20045;-51
2021/06/07 03:47:55;;;;;;;14.73;9.95;;;11.60;91.60;;;;;;4988043;28;20053;-54
2021/06/07 03:50:24;;;;;;;12.70;9.02;;;11.50;91.60;;;;;;5045763;28;20046;-54
2021/06/07 03:52:50;;;;;;;16.10;9.50;;;11.50;91.70;;;;;;5023343;28;20128;-50
2021/06/07 03:55:18;;;;;;;11.18;9.32;;;11.50;91.80;;;;;;5009146;28;20049;-49
2021/06/07 03:57:44;;;;;;;13.32;9.07;;;11.50;91.90;;;;;;5024573;28;20072;-49
2021/06/07 04:00:16;;;;;;;10.85;9.43;;;11.50;91.90;;;;;;5041830;28;20041;-52
2021/06/07 04:02:42;;;;;;;12.98;9.48;;;11.50;91.90;;;;;;5006513;28;20108;-53
2021/06/07 04:05:10;;;;;;;11.45;9.38;;;11.40;91.90;;;;;;5048066;28;20034;-52
2021/06/07 04:07:36;;;;;;;14.15;9.13;;;11.50;92.00;;;;;;5057052;28;20043;-51
2021/06/07 04:10:08;;;;;;;13.00;8.85;;;11.50;92.00;;;;;;5055842;28;20091;-50
2021/06/07 04:12:33;;;;;;;12.95;9.07;;;11.50;92.00;;;;;;5054949;28;20052;-53
2021/06/07 04:14:59;;;;;;;11.68;9.10;;;11.60;92.00;;;;;;5010445;28;20094;-52
2021/06/07 04:17:25;;;;;;;11.07;8.30;;;11.50;91.90;;;;;;5039473;28;20042;-53
2021/06/07 04:19:51;;;;;;;11.27;9.05;;;11.50;92.00;;;;;;5016856;28;20064;-52
2021/06/07 04:22:17;;;;;;;12.70;9.43;;;11.50;92.00;;;;;;5055003;28;20733;-51
2021/06/07 04:24:45;;;;;;;12.02;8.05;;;11.60;92.00;;;;;;5055335;28;20045;-54
2021/06/07 04:27:13;;;;;;;11.93;9.45;;;11.60;92.00;;;;;;5057700;28;20048;-53
2021/06/07 04:29:40;;;;;;;11.45;8.13;;;11.60;92.00;;;;;;5056920;28;20175;-51
2021/06/07 04:32:07;;;;;;;10.25;8.48;;;11.70;92.00;;;;;;5054603;28;20052;-51
2021/06/07 04:34:33;;;;;;;12.43;8.82;;;11.70;91.90;;;;;;5041722;28;20037;-50
2021/06/07 04:37:00;;;;;;;14.25;9.35;;;11.70;91.90;;;;;;5044427;28;20047;-52
2021/06/07 04:39:28;;;;;;;10.43;8.95;;;11.80;92.00;;;;;;5028928;28;20037;-52
2021/06/07 04:41:53;;;;;;;11.82;8.30;;;11.80;91.90;;;;;;5011517;28;20051;-53
2021/06/07 04:44:22;;;;;;;11.30;8.77;;;11.90;91.90;;;;;;5051053;28;20041;-53
2021/06/07 04:46:48;;;;;;;11.10;8.05;;;11.90;91.90;;;;;;5051409;28;20404;-53
2021/06/07 04:49:14;;;;;;;10.20;7.97;;;11.90;91.90;;;;;;5017278;28;20136;-51
2021/06/07 04:51:41;;;;;;;12.05;7.55;;;12.00;91.90;;;;;;5043128;28;20659;-49
2021/06/07 04:54:09;;;;;;;11.80;7.57;;;12.00;91.90;;;;;;5033384;28;20034;-50
2021/06/07 04:56:34;;;;;;;12.40;7.50;;;12.10;91.90;;;;;;5034670;28;20067;-51
2021/06/07 04:59:00;;;;;;;11.27;8.27;;;12.30;91.80;;;;;;5038529;28;20046;-50
2021/06/07 05:01:26;;;;;;;10.05;7.90;;;12.40;91.80;;;;;;5045472;28;20459;-52
2021/06/07 05:03:53;;;;;;;9.93;7.43;;;12.60;91.70;;;;;;5054359;28;20040;-54
2021/06/07 05:06:19;;;;;;;11.32;7.47;;;12.80;91.30;;;;;;5024854;28;20048;-53
2021/06/07 05:08:45;;;;;;;10.75;7.50;;;13.10;91.10;;;;;;5052970;28;20044;-51
2021/06/07 05:11:10;;;;;;;11.38;7.50;;;13.40;90.80;;;;;;5026135;28;20079;-52
2021/06/07 05:13:36;;;;;;;11.35;7.03;;;13.60;90.30;;;;;;5041541;28;20136;-52
2021/06/07 05:16:02;;;;;;;9.82;5.90;;;13.90;90.00;;;;;;5060359;28;20037;-52
2021/06/07 05:18:29;;;;;;;8.02;5.72;;;14.20;89.00;;;;;;5012481;28;20033;-50
2021/06/07 05:20:55;;;;;;;9.88;6.05;;;14.50;87.60;;;;;;5016188;28;20048;-50
2021/06/07 05:23:21;;;;;;;10.02;5.85;;;14.70;86.20;;;;;;5050326;28;20061;-49
2021/06/07 05:25:47;;;;;;;8.50;5.97;;;14.90;85.90;;;;;;5042797;28;20037;-53
2021/06/07 05:28:15;;;;;;;9.88;5.85;;;15.20;85.40;;;;;;5012596;28;20401;-51
2021/06/07 05:30:44;;;;;;;6.72;4.95;;;15.40;84.10;;;;;;5039856;28;20120;-51
2021/06/07 05:33:10;;;;;;;8.30;5.50;;;15.70;83.20;;;;;;5036273;28;20049;-48
2021/06/07 05:35:41;;;;;;;8.77;5.32;;;15.80;82.80;;;;;;5044798;28;20062;-49
2021/06/07 05:38:08;;;;;;;8.18;4.50;;;16.00;82.40;;;;;;5033137;28;20036;-49
2021/06/07 05:40:35;;;;;;;6.32;4.15;;;16.10;81.30;;;;;;5051529;28;20040;-49
2021/06/07 05:43:03;;;;;;;9.40;4.50;;;16.30;80.70;;;;;;5047813;28;20040;-53
2021/06/07 05:45:29;;;;;;;6.22;4.18;;;16.40;79.30;;;;;;5046452;28;20044;-52
2021/06/07 05:47:56;;;;;;;8.77;4.05;;;16.50;78.90;;;;;;5049685;28;20106;-50
2021/06/07 05:50:24;;;;;;;8.15;4.15;;;16.60;79.20;;;;;;5047407;28;20045;-47
2021/06/07 05:52:50;;;;;;;6.15;4.03;;;16.90;77.60;;;;;;5047695;28;20484;-54
2021/06/07 05:55:24;;;;;;;6.07;3.85;;;17.60;75.10;;;;;;5041402;28;20056;-50
2021/06/07 05:57:51;;;;;;;7.78;4.00;;;17.70;74.50;;;;;;5042482;28;20041;-50
2021/06/07 06:00:20;;;;;;;9.35;4.10;;;17.70;74.40;;;;;;5030403;28;20041;-53
2021/06/07 06:02:47;;;;;;;7.65;4.30;;;17.80;74.20;;;;;;5050274;28;20087;-52
2021/06/07 06:05:15;;;;;;;7.25;4.18;;;17.70;73.90;;;;;;5054062;28;20056;-52
2021/06/07 06:07:41;;;;;;;7.75;4.38;;;17.50;74.60;;;;;;5024738;28;20099;-52
2021/06/07 06:10:11;;;;;;;6.72;3.97;;;17.20;75.60;;;;;;5040961;28;20041;-53
2021/06/07 06:12:37;;;;;;;7.32;4.20;;;17.00;76.40;;;;;;5003558;28;20045;-51
2021/06/07 06:15:06;;;;;;;9.00;4.30;;;16.70;77.50;;;;;;5029625;28;20064;-50
2021/06/07 06:17:32;;;;;;;8.52;4.10;;;16.60;78.20;;;;;;5043218;28;20050;-55
2021/06/07 06:19:57;;;;;;;6.57;4.07;;;16.40;78.90;;;;;;5044087;28;20105;-51
2021/06/07 06:22:23;;;;;;;8.07;4.40;;;16.40;79.40;;;;;;5044542;28;20044;-49
2021/06/07 06:24:50;;;;;;;9.68;4.60;;;16.30;79.70;;;;;;5049844;28;20041;-53
2021/06/07 06:27:18;;;;;;;5.65;4.25;;;16.20;79.50;;;;;;5030786;28;20045;-53
2021/06/07 06:29:44;;;;;;;6.90;4.10;;;16.20;79.70;;;;;;5032371;28;20191;-53
2021/06/07 06:32:11;;;;;;;6.18;4.13;;;16.20;79.80;;;;;;5051508;28;20036;-53
2021/06/07 06:34:39;;;;;;;9.43;4.30;;;16.10;80.20;;;;;;5048681;28;20044;-53
2021/06/07 06:37:05;;;;;;;6.40;4.40;;;16.10;80.00;;;;;;5053106;28;20037;-51
2021/06/07 06:39:31;;;;;;;6.75;3.88;;;16.10;80.40;;;;;;5052089;28;20056;-52
2021/06/07 06:41:56;;;;;;;8.88;4.55;;;16.10;80.50;;;;;;5053021;28;20044;-50
2021/06/07 06:44:22;;;;;;;8.07;4.40;;;16.10;80.40;;;;;;5054576;28;20059;-53
2021/06/07 06:46:48;;;;;;;6.72;4.00;;;16.10;80.10;;;;;;5050019;28;20116;-52
2021/06/07 06:49:14;;;;;;;6.03;4.13;;;16.20;78.70;;;;;;5051019;28;20044;-51
2021/06/07 06:51:40;;;;;;;5.35;3.70;;;16.20;79.00;;;;;;5052102;28;20041;-50
2021/06/07 06:54:05;;;;;;;6.07;4.22;;;16.10;79.10;;;;;;5050314;28;20499;-50
2021/06/07 06:56:31;;;;;;;6.15;4.38;;;16.20;79.30;;;;;;5047981;28;20045;-53
2021/06/07 06:58:59;;;;;;;7.60;3.50;;;16.20;78.90;;;;;;5049145;28;20036;-54
2021/06/07 07:01:27;;;;;;;4.50;3.05;;;16.30;78.70;;;;;;5052542;28;20044;-51
2021/06/07 07:03:53;;;;;;;4.97;2.08;;;16.40;77.90;;;;;;5011635;28;20064;-52
2021/06/07 07:06:24;;;;;;;6.65;2.33;;;16.60;76.90;;;;;;5045573;28;20072;-50
2021/06/07 07:08:50;;;;;;;4.03;2.40;;;16.70;74.50;;;;;;5047615;28;20314;-51
2021/06/07 07:11:15;;;;;;;5.07;2.05;;;16.90;75.00;;;;;;5046270;28;20064;-51
2021/06/07 07:13:41;;;;;;;3.70;2.30;;;17.10;74.50;;;;;;5048195;28;20037;-50
2021/06/07 07:16:07;;;;;;;4.10;2.05;;;17.30;74.50;;;;;;5049764;28;20045;-51
2021/06/07 07:18:33;;;;;;;5.97;2.42;;;17.60;73.00;;;;;;4999978;28;20033;-50
2021/06/07 07:20:59;;;;;;;2.45;1.90;;;17.80;71.80;;;;;;5040930;28;20090;-52
2021/06/07 07:23:24;;;;;;;5.28;2.00;;;17.90;71.30;;;;;;5036970;28;20065;-51
2021/06/07 07:25:50;;;;;;;3.13;1.85;;;18.00;69.60;;;;;;5048119;28;20045;-53
2021/06/07 07:28:16;;;;;;;2.70;1.70;;;18.10;68.70;;;;;;5030520;28;20079;-51
2021/06/07 07:30:44;;;;;;;5.32;1.70;;;18.20;68.50;;;;;;5047371;28;20048;-53
2021/06/07 07:33:10;;;;;;;3.88;1.80;;;18.40;67.00;;;;;;5024999;28;20090;-50
2021/06/07 07:35:36;;;;;;;5.30;2.00;;;18.40;65.60;;;;;;5024511;28;20532;-51
2021/06/07 07:38:03;;;;;;;4.32;1.77;;;18.50;64.60;;;;;;5040950;28;20037;-53
2021/06/07 07:40:30;;;;;;;3.97;1.77;;;18.60;65.10;;;;;;5048865;28;20041;-52
2021/06/07 07:42:56;;;;;;;3.33;2.00;;;18.60;63.70;;;;;;5048202;28;20456;-51
2021/06/07 07:45:26;;;;;;;6.22;3.00;;;18.70;63.00;;;;;;5047397;28;20041;-53
2021/06/07 07:47:54;;;;;;;4.57;2.47;;;18.70;63.60;;;;;;5043380;28;20029;-50
2021/06/07 07:50:20;;;;;;;7.68;2.70;;;18.70;62.50;;;;;;5042508;28;20056;-55
2021/06/07 07:52:47;;;;;;;5.38;3.00;;;18.70;64.80;;;;;;5048262;28;20041;-50
2021/06/07 07:55:19;;;;;;;7.03;3.83;;;18.90;63.60;;;;;;5011580;28;20047;-53
2021/06/07 07:57:46;;;;;;;5.97;3.15;;;18.80;64.60;;;;;;5049463;28;20048;-51
2021/06/07 08:00:13;;;;;;;7.35;3.20;;;18.70;65.30;;;;;;4998916;28;20041;-52
2021/06/07 08:02:41;;;;;;;5.30;3.50;;;18.70;66.60;;;;;;5050069;28;20040;-54
2021/06/07 08:05:08;;;;;;;5.07;3.00;;;18.80;66.70;;;;;;5026433;28;20088;-53
2021/06/07 08:07:34;;;;;;;6.05;3.65;;;18.90;66.60;;;;;;5039956;28;20044;-54
2021/06/07 08:10:01;;;;;;;6.85;3.20;;;19.00;65.20;;;;;;5051201;28;20041;-53
2021/06/07 08:12:27;;;;;;;6.75;3.83;;;19.00;65.20;;;;;;5052504;28;20064;-50
2021/06/07 08:14:53;;;;;;;4.40;3.55;;;19.00;66.30;;;;;;5046650;28;20029;-53
2021/06/07 08:17:20;;;;;;;9.32;3.67;;;19.00;66.50;;;;;;5049975;28;20099;-53
2021/06/07 08:19:45;;;;;;;7.63;3.38;;;19.00;66.50;;;;;;5035472;28;20124;-51
2021/06/07 08:22:12;;;;;;;6.70;3.45;;;19.10;66.90;;;;;;5016219;28;20105;-53
2021/06/07 08:24:39;;;;;;;4.82;3.20;;;19.20;66.60;;;;;;5023047;28;20049;-52
2021/06/07 08:27:05;;;;;;;4.68;3.33;;;19.20;66.50;;;;;;5036102;28;20493;-54
2021/06/07 08:29:32;;;;;;;7.07;3.50;;;19.30;65.90;;;;;;5019760;28;20053;-51
2021/06/07 08:31:58;;;;;;;5.57;3.28;;;19.40;65.60;;;;;;5047413;28;20048;-51
2021/06/07 08:34:24;;;;;;;7.15;3.70;;;19.40;65.50;;;;;;5053034;28;20045;-50
2021/06/07 08:36:50;;;;;;;10.48;3.60;;;19.50;61.80;;;;;;5052955;28;20051;-50
2021/06/07 08:39:15;;;;;;;7.68;3.45;;;19.50;64.90;;;;;;5042475;28;20044;-51
2021/06/07 08:41:41;;;;;;;9.00;4.20;;;19.50;63.20;;;;;;5053178;28;20048;-53
2021/06/07 08:44:07;;;;;;;6.53;3.83;;;19.60;63.80;;;;;;5051641;28;20048;-54
2021/06/07 08:46:33;;;;;;;7.30;3.83;;;19.70;62.70;;;;;;5054074;28;20103;-52
2021/06/07 08:48:58;;;;;;;6.40;3.92;;;19.70;62.80;;;;;;5048252;28;20033;-50
2021/06/07 08:51:24;;;;;;;5.93;3.92;;;19.60;64.00;;;;;;5049325;28;20553;-54
2021/06/07 08:53:51;;;;;;;8.93;4.68;;;19.50;66.40;;;;;;5055276;28;20111;-53
2021/06/07 08:56:17;;;;;;;7.45;4.35;;;19.50;66.40;;;;;;5051828;28;20563;-53
2021/06/07 08:58:46;;;;;;;7.32;3.75;;;19.60;66.00;;;;;;5054491;28;20052;-54
2021/06/07 09:01:13;;;;;;;7.82;4.38;;;19.60;65.90;;;;;;5049379;28;20037;-52
2021/06/07 09:03:41;;;;;;;6.95;4.07;;;19.70;64.60;;;;;;5041469;28;20447;-55
2021/06/07 09:06:10;;;;;;;7.95;4.32;;;19.80;64.90;;;;;;5052474;28;20037;-55
2021/06/07 09:08:39;;;;;;;7.03;4.20;;;19.90;64.60;;;;;;5026392;28;20053;-52
2021/06/07 09:11:07;;;;;;;6.10;4.10;;;20.00;63.10;;;;;;5048014;28;20095;-52
2021/06/07 09:13:33;;;;;;;6.43;4.18;;;20.00;62.40;;;;;;5050353;28;20069;-54
2021/06/07 09:16:00;;;;;;;9.30;4.78;;;20.00;60.90;;;;;;5050218;28;20048;-51
2021/06/07 09:18:34;;;;;;;8.23;4.95;;;19.90;62.80;;;;;;5046653;28;20057;-52
2021/06/07 09:21:07;;;;;;;9.07;4.40;;;19.80;63.10;;;;;;5023366;28;20048;-49
2021/06/07 09:23:41;;;;;;;7.35;4.13;;;19.80;62.90;;;;;;5052278;28;20049;-51
2021/06/07 09:26:28;;;;;;;7.30;3.80;;;19.80;63.30;;;;;;5047664;28;20068;-53
2021/06/07 09:28:56;;;;;;;7.50;4.00;;;19.80;63.60;;;;;;5050535;28;20489;-49
2021/06/07 09:31:36;;;;;;;7.32;4.00;;;19.90;64.10;;;;;;5051608;28;20112;-49
2021/06/07 09:34:08;;;;;;;8.32;4.07;;;19.90;64.20;;;;;;5045045;28;20041;-55
2021/06/07 09:36:39;;;;;;;6.68;3.90;;;20.10;63.30;;;;;;5012996;28;20213;-51
2021/06/07 09:39:25;;;;;;;7.60;3.80;;;20.20;64.00;;;;;;5043582;28;20042;-54
2021/06/07 09:41:55;;;;;;;6.95;4.40;;;20.30;64.60;;;;;;5011268;28;20545;-51
2021/06/07 09:44:52;;;;;;;5.38;3.95;;;20.40;61.10;;;;;;5044696;28;20045;-54
2021/06/07 09:47:23;;;;;;;7.55;3.80;;;20.50;60.30;;;;;;5039792;28;20049;-51
2021/06/07 09:49:57;;;;;;;11.68;4.43;;;20.60;58.00;;;;;;5026267;28;20041;-55
2021/06/07 09:52:24;;;;;;;6.40;3.67;;;20.70;57.60;;;;;;5031020;28;20047;-56
2021/06/07 09:55:10;;;;;;;5.78;3.25;;;20.70;56.60;;;;;;5040994;28;20048;-51
2021/06/07 09:58:00;;;;;;;6.13;3.72;;;20.60;58.80;;;;;;5028464;28;20041;-51
2021/06/07 10:00:35;;;;;;;9.95;3.50;;;20.50;58.30;;;;;;5048394;28;20389;-48
2021/06/07 10:03:39;;;;;;;4.30;3.25;;;20.60;57.40;;;;;;5011933;28;20063;-49
2021/06/07 10:06:35;;;;;;;7.15;3.20;;;20.50;56.80;;;;;;5015082;28;20045;-48
2021/06/07 10:09:11;;;;;;;4.90;3.20;;;20.70;55.20;;;;;;5022367;28;20486;-53
2021/06/07 10:11:40;;;;;;;5.43;3.20;;;20.50;58.00;;;;;;5042786;28;20040;-51
2021/06/07 10:14:19;;;;;;;6.38;3.45;;;20.50;59.20;;;;;;5010423;28;20057;-50
2021/06/07 10:17:03;;;;;;;4.53;2.80;;;20.70;56.30;;;;;;5044519;28;20047;-50
2021/06/07 10:19:35;;;;;;;5.50;3.20;;;20.90;55.60;;;;;;5027805;28;20123;-50
2021/06/07 10:22:03;;;;;;;4.78;2.70;;;20.90;56.90;;;;;;5045463;28;20048;-52
2021/06/07 10:24:32;;;;;;;4.88;2.55;;;20.90;55.30;;;;;;5048258;28;20056;-49
2021/06/07 10:26:58;;;;;;;4.00;2.22;;;20.80;56.00;;;;;;5043080;28;20025;-51
2021/06/07 10:29:32;;;;;;;5.93;3.63;;;20.90;57.00;;;;;;5049806;28;20534;-51
2021/06/07 10:32:06;;;;;;;6.88;3.00;;;21.10;56.50;;;;;;5048459;28;20312;-52
2021/06/07 10:34:47;;;;;;;5.32;3.22;;;21.00;57.10;;;;;;5014453;28;20128;-50
2021/06/07 10:37:14;;;;;;;4.63;2.97;;;21.10;58.80;;;;;;5048622;28;20447;-51
2021/06/07 10:39:40;;;;;;;5.30;3.38;;;21.10;58.50;;;;;;5047589;28;20464;-51
2021/06/07 10:42:09;;;;;;;6.32;3.30;;;21.30;55.10;;;;;;5045118;28;20048;-50
2021/06/07 10:44:36;;;;;;;5.63;3.08;;;21.20;56.40;;;;;;5040345;28;20045;-52
2021/06/07 10:47:12;;;;;;;7.03;3.20;;;21.20;57.00;;;;;;5044332;28;20041;-55
2021/06/07 10:49:38;;;;;;;5.97;3.30;;;21.30;57.60;;;;;;5040590;28;20045;-54
2021/06/07 10:52:26;;;;;;;6.55;3.80;;;21.40;58.30;;;;;;5036054;28;20045;-52
2021/06/07 10:55:05;;;;;;;4.50;3.40;;;21.50;54.70;;;;;;5019834;28;20123;-54
2021/06/07 10:57:53;;;;;;;6.45;3.25;;;21.50;53.80;;;;;;5025857;28;20501;-54
2021/06/07 11:00:48;;;;;;;6.22;3.40;;;21.50;54.00;;;;;;5040001;28;20036;-54
2021/06/07 11:03:21;;;;;;;5.43;3.25;;;21.60;54.00;;;;;;5039979;28;20037;-54
2021/06/07 11:05:53;;;;;;;5.55;3.35;;;21.50;51.80;;;;;;5025023;28;20045;-54
2021/06/07 11:08:25;;;;;;;4.53;2.80;;;21.40;54.40;;;;;;5039235;28;20119;-54
2021/06/07 11:11:17;;;;;;;3.63;2.50;;;21.50;53.30;;;;;;5045985;28;20059;-54
2021/06/07 11:13:58;;;;;;;5.93;2.95;;;21.60;53.90;;;;;;5040707;28;20049;-54
2021/06/07 11:16:33;;;;;;;4.55;2.35;;;21.70;51.80;;;;;;5028914;28;20568;-54
2021/06/07 11:19:02;;;;;;;4.28;2.63;;;21.60;53.70;;;;;;5041934;28;20405;-54
2021/06/07 11:21:58;;;;;;;3.42;2.40;;;21.60;54.20;;;;;;5046205;28;20511;-53
2021/06/07 11:24:29;;;;;;;4.10;2.97;;;21.70;54.10;;;;;;5018686;28;20124;-55
2021/06/07 11:26:55;;;;;;;5.87;3.27;;;21.80;55.00;;;;;;5037535;28;20121;-52
2021/06/07 11:29:21;;;;;;;4.20;2.55;;;21.80;55.10;;;;;;5042015;28;20033;-54
2021/06/07 11:31:56;;;;;;;4.38;2.67;;;21.90;55.10;;;;;;5037426;28;20056;-53
2021/06/07 11:34:44;;;;;;;4.53;2.40;;;21.90;55.00;;;;;;5039631;28;20056;-54
2021/06/07 11:37:12;;;;;;;4.18;2.50;;;22.10;50.80;;;;;;5041668;28;20044;-53
2021/06/07 11:39:43;;;;;;;3.60;2.40;;;21.90;51.70;;;;;;5045553;28;20505;-54
2021/06/07 11:42:29;;;;;;;4.28;2.55;;;22.00;51.40;;;;;;5043929;28;20037;-54
2021/06/07 11:44:57;;;;;;;6.43;2.70;;;22.10;50.50;;;;;;5047395;28;20049;-54
2021/06/07 11:47:42;;;;;;;5.47;2.20;;;22.00;51.30;;;;;;5049925;28;20053;-53
2021/06/07 11:50:09;;;;;;;3.10;2.05;;;21.90;53.90;;;;;;5046594;28;20405;-54
2021/06/07 11:52:35;;;;;;;4.35;2.50;;;22.00;52.10;;;;;;5043737;28;20123;-54
2021/06/07 11:55:21;;;;;;;4.32;2.60;;;22.20;49.90;;;;;;5048974;28;20059;-55
2021/06/07 11:57:51;;;;;;;4.93;2.67;;;22.20;48.80;;;;;;5055243;28;20075;-52
2021/06/07 12:00:20;;;;;;;4.65;2.22;;;22.00;50.50;;;;;;5033107;28;20047;-54
2021/06/07 12:02:48;;;;;;;4.80;2.23;;;22.00;50.50;;;;;;5019084;28;20056;-51
2021/06/07 12:05:15;;;;;;;4.95;2.00;;;22.10;52.50;;;;;;5045839;28;20048;-54
2021/06/07 12:07:46;;;;;;;2.92;2.25;;;22.10;50.20;;;;;;5048158;28;20550;-54
2021/06/07 12:10:17;;;;;;;7.33;2.30;;;22.10;48.90;;;;;;5036518;28;20049;-54
2021/06/07 12:12:45;;;;;;;2.90;1.88;;;22.20;47.90;;;;;;5049141;28;20563;-53
2021/06/07 12:15:17;;;;;;;2.65;1.67;;;22.20;50.30;;;;;;5037725;28;20029;-54
2021/06/07 12:17:48;;;;;;;5.07;1.80;;;22.20;47.90;;;;;;5022553;28;20055;-54
2021/06/07 12:20:17;;;;;;;4.25;1.60;;;22.20;45.70;;;;;;5036136;28;20041;-54
2021/06/07 12:22:50;;;;;;;3.22;1.88;;;22.30;46.40;;;;;;5050625;28;20537;-52
2021/06/07 12:28:17;;;;;;;3.45;2.00;;;22.40;48.00;;;;;;5031151;28;20108;-54
2021/06/07 12:30:52;;;;;;;3.75;1.70;;;22.40;48.20;;;;;;5005351;28;20045;-52
2021/06/07 12:33:33;;;;;;;3.75;1.77;;;22.50;48.70;;;;;;5025711;28;20047;-54
2021/06/07 12:36:03;;;;;;;3.13;1.70;;;22.60;49.50;;;;;;5032656;28;20441;-53
2021/06/07 12:38:31;;;;;;;2.75;1.60;;;22.70;46.80;;;;;;5030889;28;20041;-54
2021/06/07 12:40:58;;;;;;;2.60;1.50;;;22.70;48.00;;;;;;5047989;28;20058;-53
2021/06/07 12:43:27;;;;;;;3.53;1.60;;;22.70;46.70;;;;;;5046683;28;20052;-54
2021/06/07 12:45:58;;;;;;;2.40;1.50;;;22.70;46.50;;;;;;5046172;28;20481;-54
2021/06/07 12:48:26;;;;;;;3.03;1.58;;;22.70;47.80;;;;;;5008421;28;20074;-53
2021/06/07 12:51:10;;;;;;;5.77;1.80;;;22.80;49.30;;;;;;5014629;28;20048;-54
2021/06/07 12:53:45;;;;;;;3.00;1.48;;;22.80;46.90;;;;;;5041416;28;20167;-54
2021/06/07 12:56:14;;;;;;;4.28;1.70;;;22.80;48.00;;;;;;5040070;28;20096;-55